Time;durP1;ratioP1;P1;durP2;ratioP2;P2;SDS_P1;SDS_P2;PMS_P1;PMS_P2;Temp;Humidity;BMP_temperature;BMP_pressure;BME280_temperature;BME280_humidity;BME280_pressure;Samples;Min_cycle;Max_cycle;Signal;HPM_P1;HPM_P2
2021/10/06 00:02:26;;;;;;;13.07;2.70;;;;;;;9.98;100.00;100923.50;5225222;28;20385;-74
2021/10/06 00:04:56;;;;;;;11.10;3.38;;;;;;;9.98;100.00;100918.16;5225348;28;20017;-74
2021/10/06 00:07:27;;;;;;;12.00;2.50;;;;;;;9.88;100.00;100929.00;5225128;28;20025;-74
2021/10/06 00:09:57;;;;;;;11.40;2.95;;;;;;;9.81;100.00;100931.47;5224818;28;20425;-73
2021/10/06 00:12:28;;;;;;;15.27;2.30;;;;;;;9.86;100.00;100925.63;5224896;28;20051;-72
2021/10/06 00:14:58;;;;;;;12.18;2.40;;;;;;;9.83;100.00;100931.31;5225013;28;20355;-74
2021/10/06 00:17:29;;;;;;;11.65;2.72;;;;;;;9.85;100.00;100932.00;5225559;28;20100;-74
2021/10/06 00:19:59;;;;;;;15.50;2.22;;;;;;;9.83;100.00;100931.31;5223905;28;20576;-74
2021/10/06 00:22:30;;;;;;;6.57;1.98;;;;;;;9.87;100.00;100932.66;5240234;28;20027;-74
2021/10/06 00:25:00;;;;;;;4.55;1.80;;;;;;;9.84;100.00;100935.69;5224645;28;20021;-73
2021/10/06 00:27:31;;;;;;;11.73;2.28;;;;;;;9.83;100.00;100934.81;5224857;28;20112;-74
2021/10/06 00:30:02;;;;;;;11.98;2.33;;;;;;;9.80;100.00;100943.19;5224520;28;20035;-74
2021/10/06 00:32:33;;;;;;;14.40;2.20;;;;;;;9.80;100.00;100939.69;5225045;28;20029;-74
2021/10/06 00:35:04;;;;;;;15.27;2.38;;;;;;;9.81;100.00;100944.03;5224859;28;20106;-74
2021/10/06 00:37:34;;;;;;;10.52;2.30;;;;;;;9.77;100.00;100937.31;5224518;28;20029;-74
2021/10/06 00:40:06;;;;;;;7.82;2.08;;;;;;;9.79;100.00;100946.03;5224227;28;20500;-74
2021/10/06 00:42:39;;;;;;;14.23;2.30;;;;;;;9.76;100.00;100938.31;5224713;28;20107;-75
2021/10/06 00:45:09;;;;;;;11.23;1.88;;;;;;;9.80;100.00;100939.69;5224678;28;20025;-75
2021/10/06 00:47:40;;;;;;;10.13;2.35;;;;;;;9.82;100.00;100949.22;5223914;28;20539;-75
2021/10/06 00:50:10;;;;;;;9.60;2.08;;;;;;;9.81;100.00;100950.22;5224071;28;20063;-72
2021/10/06 00:52:41;;;;;;;12.82;2.10;;;;;;;9.78;100.00;100960.41;5223954;28;20021;-73
2021/10/06 00:55:13;;;;;;;6.90;2.13;;;;;;;9.73;100.00;100952.84;5224024;28;20095;-75
2021/10/06 00:57:44;;;;;;;11.43;1.90;;;;;;;9.72;100.00;100953.03;5224253;28;20056;-74
2021/10/06 01:00:15;;;;;;;9.52;1.92;;;;;;;9.70;100.00;100960.38;5223453;28;20060;-74
2021/10/06 01:02:45;;;;;;;7.63;1.95;;;;;;;9.74;100.00;100956.38;5224874;28;20035;-73
2021/10/06 01:05:17;;;;;;;11.45;2.17;;;;;;;9.77;100.00;100948.03;5223438;28;20029;-74
2021/10/06 01:07:47;;;;;;;9.63;1.92;;;;;;;9.79;100.00;100964.81;5224194;28;20021;-73
2021/10/06 01:10:18;;;;;;;12.95;2.63;;;;;;;9.83;100.00;100961.63;5223678;28;20028;-75
2021/10/06 01:12:59;;;;;;;11.73;2.08;;;;;;;9.93;100.00;100964.19;5223974;28;20078;-75
2021/10/06 01:15:30;;;;;;;10.80;1.75;;;;;;;10.00;100.00;100967.09;5223890;28;20021;-74
2021/10/06 01:18:02;;;;;;;13.00;2.08;;;;;;;10.06;100.00;100969.13;5223740;28;20021;-74
2021/10/06 01:20:39;;;;;;;16.95;2.40;;;;;;;10.07;100.00;100960.91;5224018;28;20129;-72
2021/10/06 01:23:09;;;;;;;10.60;2.58;;;;;;;10.10;100.00;100965.97;5223269;28;20033;-72
2021/10/06 01:25:55;;;;;;;11.18;1.70;;;;;;;10.12;100.00;100958.59;5223813;28;20017;-72
2021/10/06 01:28:25;;;;;;;11.40;1.67;;;;;;;10.13;100.00;100967.47;5223900;28;20072;-73
2021/10/06 01:30:56;;;;;;;9.82;1.50;;;;;;;10.18;100.00;100978.56;5223486;28;20425;-72
2021/10/06 01:33:27;;;;;;;16.88;1.90;;;;;;;10.19;100.00;100982.06;5223577;28;20474;-72
2021/10/06 01:35:57;;;;;;;13.32;2.22;;;;;;;10.20;100.00;100986.47;5223367;28;20482;-72
2021/10/06 01:38:27;;;;;;;11.82;2.00;;;;;;;10.20;100.00;100978.41;5223605;28;20063;-74
2021/10/06 01:40:58;;;;;;;8.35;1.88;;;;;;;10.13;100.00;100978.19;5223297;28;20112;-72
2021/10/06 01:43:29;;;;;;;7.93;1.85;;;;;;;10.05;100.00;100984.38;5223575;28;20049;-75
2021/10/06 01:45:59;;;;;;;10.18;1.83;;;;;;;10.00;100.00;100978.66;5223417;28;20104;-75
2021/10/06 01:48:30;;;;;;;13.20;1.70;;;;;;;9.97;100.00;100980.78;5223452;28;20037;-72
2021/10/06 01:51:08;;;;;;;13.70;2.10;;;;;;;9.98;100.00;100980.63;5224076;28;20495;-74
2021/10/06 01:53:40;;;;;;;8.68;1.63;;;;;;;9.92;100.00;100981.28;5223114;28;20158;-73
2021/10/06 01:56:11;;;;;;;13.93;2.05;;;;;;;9.89;100.00;100983.41;5223388;28;20486;-73
2021/10/06 01:58:44;;;;;;;19.15;2.30;;;;;;;9.85;100.00;100985.59;5222732;28;20037;-73
2021/10/06 02:01:14;;;;;;;11.48;1.80;;;;;;;9.86;100.00;100984.59;5223150;28;20113;-74
2021/10/06 02:03:45;;;;;;;11.80;2.67;;;;;;;9.84;100.00;100987.44;5222761;28;20490;-74
2021/10/06 02:06:16;;;;;;;10.43;1.90;;;;;;;9.83;100.00;100987.56;5223355;28;20071;-74
2021/10/06 02:08:47;;;;;;;14.23;2.03;;;;;;;9.83;100.00;100984.91;5222963;28;20452;-74
2021/10/06 02:11:18;;;;;;;9.07;2.17;;;;;;;9.87;100.00;100994.31;5222643;28;20449;-73
2021/10/06 02:13:48;;;;;;;12.43;1.55;;;;;;;9.90;100.00;100979.75;5223422;28;20099;-73
2021/10/06 02:16:19;;;;;;;16.63;1.75;;;;;;;9.94;100.00;100981.97;5221956;28;20021;-72
2021/10/06 02:18:50;;;;;;;14.60;1.75;;;;;;;9.96;100.00;100982.63;5222634;28;20029;-73
2021/10/06 02:21:20;;;;;;;7.53;1.77;;;;;;;9.92;100.00;100989.31;5222358;28;20104;-72
2021/10/06 02:23:51;;;;;;;7.38;1.50;;;;;;;9.93;100.00;100982.94;5222738;28;20102;-73
2021/10/06 02:26:21;;;;;;;5.32;1.20;;;;;;;9.95;100.00;100983.66;5222997;28;20017;-73
2021/10/06 02:28:51;;;;;;;11.18;1.33;;;;;;;9.99;100.00;100985.00;5222830;28;20024;-73
2021/10/06 02:31:22;;;;;;;5.15;1.35;;;;;;;9.99;100.00;100979.66;5222835;28;20065;-73
2021/10/06 02:33:53;;;;;;;9.35;1.60;;;;;;;10.06;100.00;100982.53;5222328;28;20025;-73
2021/10/06 02:36:23;;;;;;;6.30;1.13;;;;;;;10.10;100.00;100991.94;5222418;28;20059;-73
2021/10/06 02:38:53;;;;;;;10.57;3.17;;;;;;;10.12;100.00;100988.09;5222208;28;20025;-73
2021/10/06 02:41:24;;;;;;;10.98;1.50;;;;;;;10.16;100.00;100991.28;5222576;28;20029;-73
2021/10/06 02:43:54;;;;;;;6.47;1.92;;;;;;;10.19;100.00;100990.97;5222888;28;20021;-73
2021/10/06 02:46:25;;;;;;;16.30;1.95;;;;;;;10.24;100.00;100985.16;5222020;28;20478;-73
2021/10/06 02:48:55;;;;;;;8.75;1.40;;;;;;;10.36;100.00;100995.44;5222140;28;20025;-73
2021/10/06 02:51:26;;;;;;;10.57;1.40;;;;;;;10.37;100.00;100990.91;5222248;28;20076;-72
2021/10/06 02:53:56;;;;;;;8.85;1.33;;;;;;;10.34;100.00;100997.44;5222042;28;20033;-73
2021/10/06 02:56:27;;;;;;;11.23;1.70;;;;;;;10.34;100.00;100992.09;5222139;28;20032;-74
2021/10/06 02:58:57;;;;;;;14.57;1.73;;;;;;;10.38;100.00;100987.22;5221731;28;20031;-72
2021/10/06 03:01:28;;;;;;;15.93;1.50;;;;;;;10.42;100.00;100982.38;5221882;28;20021;-72
2021/10/06 03:03:59;;;;;;;10.88;1.70;;;;;;;10.39;100.00;100988.91;5222115;28;20033;-72
2021/10/06 03:06:29;;;;;;;13.15;2.20;;;;;;;10.36;100.00;100992.75;5221724;28;20029;-73
2021/10/06 03:09:00;;;;;;;5.65;2.00;;;;;;;10.38;100.00;100987.22;5221920;28;20398;-73
2021/10/06 03:11:30;;;;;;;9.05;1.50;;;;;;;10.36;100.00;100989.25;5221814;28;20020;-73
2021/10/06 03:14:01;;;;;;;7.40;1.58;;;;;;;10.38;100.00;100998.78;5222208;28;20439;-74
2021/10/06 03:16:31;;;;;;;8.00;1.40;;;;;;;10.38;100.00;100996.09;5221593;28;20535;-73
2021/10/06 03:19:02;;;;;;;7.20;1.33;;;;;;;10.41;100.00;101005.69;5222320;28;20033;-73
2021/10/06 03:21:33;;;;;;;10.50;1.63;;;;;;;10.46;100.00;101000.69;5222315;28;20025;-73
2021/10/06 03:24:04;;;;;;;5.30;1.45;;;;;;;10.42;100.00;100988.59;5222099;28;20485;-73
2021/10/06 03:26:34;;;;;;;12.15;1.88;;;;;;;10.45;100.00;100988.28;5221931;28;20290;-72
2021/10/06 03:29:05;;;;;;;7.97;1.38;;;;;;;10.44;100.00;100988.41;5226270;28;20029;-73
2021/10/06 03:31:36;;;;;;;14.50;1.30;;;;;;;10.43;100.00;100992.09;5226155;28;20032;-72
2021/10/06 03:34:06;;;;;;;13.00;1.75;;;;;;;10.38;100.00;100987.22;5226240;28;20036;-72
2021/10/06 03:36:37;;;;;;;9.38;1.30;;;;;;;10.32;100.00;100986.03;5225346;28;20410;-72
2021/10/06 03:39:07;;;;;;;11.45;1.52;;;;;;;10.37;100.00;101004.31;5225540;28;20067;-73
2021/10/06 03:41:38;;;;;;;9.75;1.67;;;;;;;10.33;100.00;101003.78;5225809;28;20028;-72
2021/10/06 03:44:08;;;;;;;6.63;1.20;;;;;;;10.35;100.00;101003.66;5225981;28;20554;-72
2021/10/06 03:46:39;;;;;;;7.88;1.33;;;;;;;10.36;100.00;101003.47;5225374;28;20138;-72
2021/10/06 03:49:09;;;;;;;10.60;1.48;;;;;;;10.36;100.00;101021.41;5225136;28;20032;-76
2021/10/06 03:51:40;;;;;;;12.75;1.50;;;;;;;10.36;100.00;101022.25;5225715;28;20509;-73
2021/10/06 03:54:10;;;;;;;9.35;1.40;;;;;;;10.34;100.00;101024.28;5225919;28;20036;-74
2021/10/06 03:56:41;;;;;;;10.52;1.30;;;;;;;10.33;100.00;101027.09;5225461;28;20021;-73
2021/10/06 03:59:11;;;;;;;7.93;1.52;;;;;;;10.33;100.00;101037.81;5225789;28;20078;-74
2021/10/06 04:01:42;;;;;;;8.05;1.50;;;;;;;10.30;100.00;101032.78;5225347;28;20032;-74
2021/10/06 04:04:12;;;;;;;7.18;1.30;;;;;;;10.34;100.00;101032.31;5225474;28;20608;-74
2021/10/06 04:06:43;;;;;;;5.43;1.02;;;;;;;10.34;100.00;101023.41;5225220;28;20032;-73
2021/10/06 04:09:13;;;;;;;19.88;4.70;;;;;;;10.30;100.00;101024.75;5225280;28;20063;-72
2021/10/06 04:11:44;;;;;;;11.15;1.42;;;;;;;10.27;100.00;101019.69;5223669;28;20020;-74
2021/10/06 04:14:14;;;;;;;12.38;1.83;;;;;;;10.27;100.00;101030.41;5225688;28;20098;-73
2021/10/06 04:16:45;;;;;;;9.13;1.52;;;;;;;10.24;100.00;101020.88;5225107;28;20025;-73
2021/10/06 04:19:15;;;;;;;6.80;1.48;;;;;;;10.20;100.00;101026.69;5224849;28;20237;-72
2021/10/06 04:21:46;;;;;;;12.88;1.92;;;;;;;10.20;100.00;101034.72;5225292;28;20028;-72
2021/10/06 04:24:16;;;;;;;10.60;1.60;;;;;;;10.20;100.00;101040.09;5224905;28;20017;-76
2021/10/06 04:26:47;;;;;;;6.05;1.70;;;;;;;10.21;100.00;101044.44;5224965;28;20041;-73
2021/10/06 04:29:17;;;;;;;9.02;1.55;;;;;;;10.22;100.00;101038.91;5224763;28;20025;-73
2021/10/06 04:31:48;;;;;;;7.95;1.40;;;;;;;10.20;100.00;101050.81;5225054;28;20036;-73
2021/10/06 04:34:19;;;;;;;10.35;1.58;;;;;;;10.24;100.00;101054.84;5225019;28;20021;-71
2021/10/06 04:36:49;;;;;;;15.32;1.48;;;;;;;10.25;100.00;101054.72;5224388;28;20021;-73
2021/10/06 04:39:20;;;;;;;8.80;1.33;;;;;;;10.25;100.00;101060.09;5223776;28;20035;-73
2021/10/06 04:41:50;;;;;;;10.05;1.92;;;;;;;10.17;100.00;101056.47;5224391;28;20021;-72
2021/10/06 04:44:20;;;;;;;9.88;2.33;;;;;;;10.13;100.00;101055.94;5224410;28;20048;-74
2021/10/06 04:46:51;;;;;;;9.48;2.50;;;;;;;10.06;100.00;101061.09;5224324;28;20104;-71
2021/10/06 04:49:22;;;;;;;10.13;1.52;;;;;;;10.03;100.00;101058.72;5223759;28;20111;-72
2021/10/06 04:51:52;;;;;;;6.03;1.77;;;;;;;9.97;100.00;101061.19;5224471;28;20048;-72
2021/10/06 04:54:23;;;;;;;9.48;2.70;;;;;;;9.90;100.00;101069.03;5225420;28;20029;-76
2021/10/06 04:56:53;;;;;;;12.23;1.80;;;;;;;9.85;100.00;101069.50;5224155;28;20021;-73
2021/10/06 04:59:24;;;;;;;9.98;1.52;;;;;;;9.77;100.00;101069.44;5224256;28;20116;-73
2021/10/06 05:01:55;;;;;;;9.18;2.03;;;;;;;9.76;100.00;101074.94;5223589;28;20024;-72
2021/10/06 05:04:27;;;;;;;13.60;1.40;;;;;;;9.73;100.00;101072.56;5224039;28;20028;-73
2021/10/06 05:06:57;;;;;;;12.23;2.05;;;;;;;9.69;100.00;101081.91;5224009;28;20035;-74
2021/10/06 05:09:28;;;;;;;8.05;1.92;;;;;;;9.66;100.00;101079.56;5223904;28;20025;-73
2021/10/06 05:11:58;;;;;;;15.68;2.25;;;;;;;9.65;100.00;101080.56;5223943;28;20494;-73
2021/10/06 05:14:29;;;;;;;12.07;2.53;;;;;;;9.62;100.00;101086.22;5223456;28;20028;-74
2021/10/06 05:16:59;;;;;;;8.98;1.75;;;;;;;9.61;100.00;101088.06;5224477;28;20024;-73
2021/10/06 05:19:30;;;;;;;8.90;1.55;;;;;;;9.60;100.00;101094.41;5223630;28;20033;-74
2021/10/06 05:22:02;;;;;;;7.00;1.73;;;;;;;9.57;100.00;101092.88;5223791;28;20100;-72
2021/10/06 05:24:32;;;;;;;8.95;1.67;;;;;;;9.54;100.00;101095.88;5223307;28;20478;-74
2021/10/06 05:27:03;;;;;;;13.15;2.25;;;;;;;9.51;100.00;101093.50;5223464;28;20129;-74
2021/10/06 05:29:33;;;;;;;8.27;1.55;;;;;;;9.49;100.00;101089.28;5223423;28;20021;-73
2021/10/06 05:32:04;;;;;;;12.43;2.38;;;;;;;9.47;100.00;101096.63;5223573;28;20084;-73
2021/10/06 05:34:35;;;;;;;10.05;1.90;;;;;;;9.43;100.00;101104.13;5223578;28;20418;-73
2021/10/06 05:37:05;;;;;;;15.07;2.50;;;;;;;9.45;100.00;101087.91;5223639;28;20071;-74
2021/10/06 05:39:36;;;;;;;8.32;1.73;;;;;;;9.47;100.00;101100.13;5222821;28;20029;-74
2021/10/06 05:42:06;;;;;;;9.50;2.72;;;;;;;9.45;100.00;101101.31;5223503;28;20166;-74
2021/10/06 05:44:37;;;;;;;7.53;1.70;;;;;;;9.46;100.00;101095.78;5228174;28;20052;-73
2021/10/06 05:47:07;;;;;;;10.95;1.70;;;;;;;9.45;100.00;101110.19;5230917;28;20091;-75
2021/10/06 05:49:38;;;;;;;10.85;1.77;;;;;;;9.49;100.00;101100.00;5232998;28;20406;-75
2021/10/06 05:52:09;;;;;;;15.63;2.38;;;;;;;9.48;100.00;101101.81;5232694;28;20044;-73
2021/10/06 05:54:39;;;;;;;9.20;1.83;;;;;;;9.48;100.00;101109.00;5232647;28;20131;-73
2021/10/06 05:57:10;;;;;;;10.25;1.67;;;;;;;9.47;100.00;101118.88;5230420;28;20060;-74
2021/10/06 05:59:40;;;;;;;6.65;1.55;;;;;;;9.48;100.00;101125.06;5232298;28;20075;-72
2021/10/06 06:02:11;;;;;;;16.25;2.45;;;;;;;9.46;100.00;101119.03;5233125;28;20031;-73
2021/10/06 06:04:41;;;;;;;14.60;3.17;;;;;;;9.45;100.00;101117.38;5228596;28;20024;-74
2021/10/06 06:07:12;;;;;;;10.98;2.03;;;;;;;9.45;100.00;101110.19;5225825;28;20282;-75
2021/10/06 06:09:42;;;;;;;13.55;2.03;;;;;;;9.45;100.00;101128.91;5224025;28;20024;-75
2021/10/06 06:12:13;;;;;;;14.18;2.13;;;;;;;9.47;100.00;101123.41;5223975;28;20017;-76
2021/10/06 06:14:44;;;;;;;13.57;1.88;;;;;;;9.49;100.00;101134.81;5223098;28;20028;-76
2021/10/06 06:17:14;;;;;;;6.38;1.65;;;;;;;9.48;100.00;101136.63;5224236;28;20494;-74
2021/10/06 06:19:45;;;;;;;15.90;2.00;;;;;;;9.47;100.00;101129.59;5223418;28;20392;-77
2021/10/06 06:22:16;;;;;;;17.70;2.42;;;;;;;9.47;100.00;101134.13;5222871;28;20032;-74
2021/10/06 06:24:46;;;;;;;14.82;1.92;;;;;;;9.46;100.00;101130.59;5222488;28;20025;-73
2021/10/06 06:27:16;;;;;;;14.13;1.80;;;;;;;9.50;100.00;101137.34;5222234;28;20021;-74
2021/10/06 06:29:47;;;;;;;10.93;1.80;;;;;;;9.52;100.00;101131.81;5222296;28;20497;-73
2021/10/06 06:32:17;;;;;;;9.20;2.28;;;;;;;9.50;100.00;101142.69;5222541;28;20029;-74
2021/10/06 06:34:48;;;;;;;13.55;2.55;;;;;;;9.53;100.00;101130.81;5220957;28;20033;-73
2021/10/06 06:37:18;;;;;;;10.13;2.10;;;;;;;9.52;100.00;101146.06;5222426;28;20028;-73
2021/10/06 06:39:49;;;;;;;11.02;1.83;;;;;;;9.54;100.00;101146.75;5221779;28;20025;-73
2021/10/06 06:42:19;;;;;;;13.32;2.05;;;;;;;9.53;100.00;101138.84;5222550;28;20557;-76
2021/10/06 06:44:50;;;;;;;13.18;3.35;;;;;;;9.59;100.00;101149.81;5222232;28;20021;-73
2021/10/06 06:47:20;;;;;;;9.95;2.17;;;;;;;9.56;100.00;101142.09;5222005;28;20371;-73
2021/10/06 06:49:52;;;;;;;10.52;2.50;;;;;;;9.55;100.00;101151.13;5221996;28;20021;-74
2021/10/06 06:52:23;;;;;;;19.40;2.58;;;;;;;9.55;100.00;101147.59;5221968;28;20025;-73
2021/10/06 06:54:53;;;;;;;7.43;1.75;;;;;;;9.56;100.00;101149.28;5218349;28;20439;-73
2021/10/06 06:57:25;;;;;;;13.70;3.30;;;;;;;9.51;100.00;101148.91;5221276;28;20024;-73
2021/10/06 07:00:11;;;;;;;13.05;2.47;;;;;;;9.51;100.00;101155.09;5221732;28;20524;-73
2021/10/06 07:02:41;;;;;;;7.32;2.50;;;;;;;9.55;100.00;101166.34;5220677;28;20329;-74
2021/10/06 07:05:12;;;;;;;8.65;2.42;;;;;;;9.55;100.00;101169.03;5220672;28;20430;-74
2021/10/06 07:07:44;;;;;;;8.05;2.63;;;;;;;9.54;100.00;101162.00;5221023;28;20482;-75
2021/10/06 07:10:15;;;;;;;9.68;2.42;;;;;;;9.55;100.00;101153.78;5220735;28;20624;-75
2021/10/06 07:12:45;;;;;;;10.55;3.50;;;;;;;9.55;100.00;101174.38;5220910;28;20405;-73
2021/10/06 07:15:16;;;;;;;18.63;12.57;;;;;;;9.59;100.00;101175.78;5219931;28;20032;-74
2021/10/06 07:17:47;;;;;;;14.77;7.28;;;;;;;9.62;100.00;101179.97;5219563;28;20082;-75
2021/10/06 07:20:17;;;;;;;7.93;2.90;;;;;;;9.59;100.00;101178.44;5220852;28;20029;-73
2021/10/06 07:22:48;;;;;;;7.07;3.80;;;;;;;9.62;100.00;101163.91;5220602;28;20037;-74
2021/10/06 07:25:19;;;;;;;11.93;3.10;;;;;;;9.66;100.00;101176.00;5220423;28;20024;-75
2021/10/06 07:27:49;;;;;;;9.13;3.22;;;;;;;9.65;100.00;101188.56;5221063;28;20029;-73
2021/10/06 07:30:20;;;;;;;9.40;4.13;;;;;;;9.69;100.00;101189.94;5220920;28;20037;-73
2021/10/06 07:32:50;;;;;;;7.93;3.30;;;;;;;9.73;100.00;101182.41;5220528;28;20032;-73
2021/10/06 07:35:21;;;;;;;13.75;3.30;;;;;;;9.77;100.00;101183.81;5220552;28;20025;-73
2021/10/06 07:37:51;;;;;;;20.05;3.60;;;;;;;9.75;100.00;101186.66;5220762;28;20466;-73
2021/10/06 07:40:22;;;;;;;8.88;3.47;;;;;;;9.70;100.00;101199.66;5220259;28;20402;-73
2021/10/06 07:42:53;;;;;;;7.60;3.00;;;;;;;9.64;100.00;101199.41;5220852;28;20056;-73
2021/10/06 07:45:23;;;;;;;9.50;4.15;;;;;;;9.60;100.00;101207.75;5252489;28;20502;-73
2021/10/06 07:47:54;;;;;;;10.85;3.33;;;;;;;9.60;100.00;101205.06;5220693;28;20036;-73
2021/10/06 07:50:26;;;;;;;14.18;4.07;;;;;;;9.59;100.00;101208.75;5219942;28;20028;-74
2021/10/06 07:52:56;;;;;;;8.48;3.05;;;;;;;9.57;100.00;101210.72;5220167;28;20406;-73
2021/10/06 07:55:27;;;;;;;9.85;3.15;;;;;;;9.57;100.00;101208.03;5219859;28;20028;-74
2021/10/06 07:57:58;;;;;;;8.23;4.30;;;;;;;9.53;100.00;101214.69;5220534;28;20474;-74
2021/10/06 08:00:28;;;;;;;9.10;3.90;;;;;;;9.55;100.00;101217.25;5219892;28;20109;-73
2021/10/06 08:02:59;;;;;;;7.95;4.10;;;;;;;9.54;100.00;101216.41;5220271;28;20356;-76
2021/10/06 08:05:29;;;;;;;9.40;3.95;;;;;;;9.56;100.00;101224.28;5220425;28;20100;-73
2021/10/06 08:08:00;;;;;;;10.50;3.88;;;;;;;9.57;100.00;101229.47;5220218;28;20036;-76
2021/10/06 08:10:31;;;;;;;9.15;4.00;;;;;;;9.59;100.00;101232.03;5207211;28;20025;-73
2021/10/06 08:13:03;;;;;;;12.85;4.50;;;;;;;9.56;100.00;101235.81;5220279;28;20031;-73
2021/10/06 08:15:34;;;;;;;43.10;18.92;;;;;;;9.59;100.00;101238.22;5222908;28;20055;-74
2021/10/06 08:18:05;;;;;;;30.92;14.45;;;;;;;9.63;100.00;101244.09;5224126;28;20055;-76
2021/10/06 08:20:35;;;;;;;16.48;5.25;;;;;;;9.60;100.00;101245.25;5224215;28;20032;-73
2021/10/06 08:23:08;;;;;;;19.65;9.95;;;;;;;9.60;100.00;101253.28;5223883;28;20036;-74
2021/10/06 08:25:39;;;;;;;13.98;7.80;;;;;;;9.61;100.00;101254.13;5220642;28;20028;-73
2021/10/06 08:28:10;;;;;;;21.80;9.98;;;;;;;9.67;100.00;101260.72;5223711;28;20035;-73
2021/10/06 08:30:41;;;;;;;14.23;8.55;;;;;;;9.67;100.00;101276.78;5219981;28;20031;-73
2021/10/06 08:33:12;;;;;;;13.00;5.05;;;;;;;9.67;100.00;101274.97;5223313;28;20020;-74
2021/10/06 08:35:42;;;;;;;10.23;4.75;;;;;;;9.65;100.00;101274.28;5225486;28;20032;-74
2021/10/06 08:38:13;;;;;;;12.70;4.55;;;;;;;9.70;100.00;101272.00;5223300;28;20474;-76
2021/10/06 08:40:44;;;;;;;11.23;4.88;;;;;;;9.75;100.00;101284.94;5223114;28;20375;-73
2021/10/06 08:43:14;;;;;;;12.13;4.43;;;;;;;9.78;100.00;101282.78;5263422;28;20043;-74
2021/10/06 08:45:45;;;;;;;15.32;5.55;;;;;;;9.80;100.00;101299.56;5225640;28;20050;-75
2021/10/06 08:48:16;;;;;;;6.82;4.88;;;;;;;9.81;100.00;101293.22;5224956;28;20118;-73
2021/10/06 08:50:46;;;;;;;49.25;24.83;;;;;;;9.82;100.00;101310.97;5227716;28;20583;-73
2021/10/06 08:53:17;;;;;;;87.05;49.60;;;;;;;9.90;100.00;101306.72;5234305;28;20221;-73
2021/10/06 08:55:47;;;;;;;100.95;56.92;;;;;;;9.95;100.00;101315.13;5225849;28;20017;-74
2021/10/06 08:58:18;;;;;;;152.07;100.30;;;;;;;9.98;100.00;101320.19;5234489;28;20103;-73
2021/10/06 09:00:55;;;;;;;13.63;7.68;;;;;;;9.97;100.00;101313.97;5228057;28;20063;-74
2021/10/06 09:03:26;;;;;;;13.32;8.02;;;;;;;9.99;100.00;101308.47;5228226;28;20031;-75
2021/10/06 09:06:07;;;;;;;10.70;5.80;;;;;;;9.97;100.00;101319.34;5230224;28;20032;-74
2021/10/06 09:08:38;;;;;;;13.45;5.00;;;;;;;9.94;100.00;101325.03;5231706;28;20021;-73
2021/10/06 09:11:09;;;;;;;12.88;5.60;;;;;;;10.00;100.00;101329.78;5223398;28;20056;-73
2021/10/06 09:13:42;;;;;;;16.27;5.53;;;;;;;10.06;100.00;101345.25;5230460;28;20460;-73
2021/10/06 09:16:17;;;;;;;16.02;5.60;;;;;;;10.01;100.00;101328.78;5229923;28;20060;-73
2021/10/06 09:18:47;;;;;;;14.63;5.40;;;;;;;10.05;100.00;101342.72;5232468;28;20048;-73
2021/10/06 09:21:18;;;;;;;19.55;4.97;;;;;;;10.07;100.00;101340.72;5231458;28;20116;-75
2021/10/06 09:23:48;;;;;;;12.00;5.18;;;;;;;10.12;100.00;101338.44;5226350;28;20033;-74
2021/10/06 09:26:19;;;;;;;15.02;4.80;;;;;;;10.07;100.00;101343.41;5229395;28;20039;-74
2021/10/06 09:28:51;;;;;;;9.57;4.55;;;;;;;10.12;100.00;101351.84;5233443;28;20060;-76
2021/10/06 09:31:24;;;;;;;9.88;4.20;;;;;;;10.10;100.00;101368.09;5215883;28;20109;-73
2021/10/06 09:33:57;;;;;;;11.27;4.60;;;;;;;10.06;100.00;101374.75;5229793;28;20195;-74
2021/10/06 09:36:31;;;;;;;12.07;4.38;;;;;;;10.06;100.00;101380.09;5226411;28;20020;-75
2021/10/06 09:39:08;;;;;;;11.50;4.00;;;;;;;10.10;100.00;101380.66;5232505;28;20027;-73
2021/10/06 09:41:44;;;;;;;9.40;3.92;;;;;;;10.07;100.00;101378.25;5229824;28;20043;-74
2021/10/06 09:44:23;;;;;;;15.20;4.05;;;;;;;10.06;100.00;101376.56;5226646;28;20021;-73
2021/10/06 09:46:59;;;;;;;13.68;5.93;;;;;;;10.10;100.00;101384.16;5224316;28;20052;-74
2021/10/06 09:49:37;;;;;;;64.75;46.80;;;;;;;10.10;100.00;101391.38;5228167;28;20024;-75
2021/10/06 09:52:15;;;;;;;24.20;15.02;;;;;;;10.13;100.00;101388.38;5224191;28;20017;-74
2021/10/06 09:54:49;;;;;;;21.70;11.52;;;;;;;10.16;100.00;101392.59;5229419;28;20064;-75
2021/10/06 09:57:34;;;;;;;16.33;7.53;;;;;;;10.19;100.00;101398.53;5229819;28;20390;-73
2021/10/06 10:00:13;;;;;;;18.80;12.48;;;;;;;10.28;100.00;101407.50;5235470;28;20547;-73
2021/10/06 10:02:46;;;;;;;7.90;3.70;;;;;;;10.29;100.00;101401.16;5234764;28;20032;-74
2021/10/06 10:05:16;;;;;;;8.57;3.63;;;;;;;10.42;100.00;101403.47;5225800;28;20020;-74
2021/10/06 10:07:50;;;;;;;6.82;2.78;;;;;;;10.47;100.00;101409.22;5223791;28;20035;-75
2021/10/06 10:10:20;;;;;;;6.07;3.45;;;;;;;10.59;100.00;101410.69;5224690;28;20028;-74
2021/10/06 10:12:51;;;;;;;5.05;3.08;;;;;;;10.66;100.00;101413.63;5236881;28;20029;-73
2021/10/06 10:15:22;;;;;;;7.22;3.47;;;;;;;10.69;100.00;101426.72;5233148;28;20217;-74
2021/10/06 10:17:55;;;;;;;8.60;3.65;;;;;;;10.61;100.00;101432.84;5234758;28;20024;-73
2021/10/06 10:20:29;;;;;;;6.65;3.08;;;;;;;10.65;100.00;101446.81;5226553;28;20032;-74
2021/10/06 10:23:02;;;;;;;8.07;4.07;;;;;;;10.68;100.00;101451.88;5226278;28;20450;-74
2021/10/06 10:25:40;;;;;;;6.20;3.22;;;;;;;10.61;100.00;101452.47;5224282;28;20102;-75
2021/10/06 10:28:12;;;;;;;5.50;3.42;;;;;;;10.62;100.00;101453.31;5222674;28;20389;-73
2021/10/06 10:30:54;;;;;;;7.65;3.35;;;;;;;10.62;100.00;101461.38;5226411;28;20025;-73
2021/10/06 10:33:40;;;;;;;5.18;2.75;;;;;;;10.65;100.00;101453.03;5235410;28;20025;-74
2021/10/06 10:36:45;;;;;;;6.20;2.63;;;;;;;10.76;100.00;101470.75;5227242;28;20016;-73
2021/10/06 10:39:51;;;;;;;9.50;3.00;;;;;;;10.88;100.00;101474.88;5241590;28;20025;-75
2021/10/06 10:43:03;;;;;;;10.57;3.90;;;;;;;10.97;100.00;101479.34;5224740;28;20035;-73
2021/10/06 10:45:38;;;;;;;7.38;3.40;;;;;;;11.10;100.00;101468.22;5223760;28;20031;-76
2021/10/06 10:48:12;;;;;;;5.83;2.50;;;;;;;11.30;100.00;101483.16;5227294;28;20028;-75
2021/10/06 10:50:42;;;;;;;3.55;2.63;;;;;;;11.46;100.00;101473.53;5225879;28;20060;-74
2021/10/06 10:53:16;;;;;;;6.45;2.55;;;;;;;11.63;100.00;101476.16;5231051;28;20169;-73
2021/10/06 10:55:54;;;;;;;5.97;2.30;;;;;;;11.76;100.00;101488.38;5223454;28;20457;-75
2021/10/06 10:58:30;;;;;;;9.23;2.92;;;;;;;11.85;100.00;101484.75;5232529;28;20085;-74
2021/10/06 11:01:04;;;;;;;11.60;5.38;;;;;;;12.23;100.00;101488.81;5225477;28;20044;-73
2021/10/06 11:04:11;;;;;;;11.32;3.95;;;;;;;12.57;100.00;101482.56;5223345;28;20019;-74
2021/10/06 11:06:45;;;;;;;7.35;4.00;;;;;;;13.13;100.00;101484.50;5230145;28;20037;-74
2021/10/06 11:09:32;;;;;;;5.93;2.35;;;;;;;13.02;100.00;101484.81;5226085;28;20055;-73
2021/10/06 11:12:04;;;;;;;5.18;2.70;;;;;;;12.79;100.00;101495.38;5224962;28;20037;-76
2021/10/06 11:14:37;;;;;;;4.50;2.65;;;;;;;12.60;100.00;101492.97;5228748;28;20701;-74
2021/10/06 11:17:11;;;;;;;6.47;2.90;;;;;;;12.42;100.00;101499.31;5229114;28;20112;-74
2021/10/06 11:19:45;;;;;;;10.43;2.47;;;;;;;12.19;100.00;101501.72;5224806;28;20031;-74
2021/10/06 11:22:22;;;;;;;9.10;2.67;;;;;;;12.04;100.00;101510.56;5228042;28;20098;-73
2021/10/06 11:25:05;;;;;;;7.30;2.83;;;;;;;11.94;100.00;101505.28;5226036;28;20083;-74
2021/10/06 11:27:46;;;;;;;6.57;2.70;;;;;;;11.78;100.00;101513.22;5231047;28;20029;-75
2021/10/06 11:30:19;;;;;;;7.20;3.03;;;;;;;11.80;100.00;101517.47;5229270;28;20487;-74
2021/10/06 11:32:53;;;;;;;10.88;3.60;;;;;;;11.66;100.00;101509.97;5226967;28;20052;-74
2021/10/06 11:35:32;;;;;;;9.38;2.85;;;;;;;11.58;100.00;101515.28;5228078;28;20031;-74
2021/10/06 11:38:09;;;;;;;24.33;16.10;;;;;;;11.58;100.00;101529.56;5233317;28;20497;-74
2021/10/06 11:40:40;;;;;;;11.95;6.75;;;;;;;11.58;100.00;101534.09;5229785;28;20240;-75